createdAt,value
2023-09-11T00:00:49.590Z,4.90
2023-09-11T00:06:04.042Z,4.85
2023-09-11T00:11:08.027Z,4.70
2023-09-11T00:16:10.159Z,4.80
2023-09-11T00:21:12.568Z,4.38
2023-09-11T00:26:14.705Z,5.25
2023-09-11T00:31:19.229Z,4.68
2023-09-11T00:36:21.408Z,4.40
2023-09-11T00:41:23.627Z,4.78
2023-09-11T00:46:25.980Z,4.40
2023-09-11T00:51:29.108Z,5.00
2023-09-11T00:56:31.817Z,4.35
2023-09-11T01:01:34.054Z,5.20
2023-09-11T01:06:36.256Z,4.90
2023-09-11T01:11:38.653Z,5.05
2023-09-11T01:16:57.740Z,4.35
2023-09-11T01:22:02.489Z,4.95
2023-09-11T01:27:23.848Z,4.80
2023-09-11T01:32:27.031Z,4.22
2023-09-11T01:37:31.366Z,4.73
2023-09-11T01:42:55.312Z,4.72
2023-09-11T01:47:57.935Z,4.70
2023-09-11T01:53:00.602Z,4.90
2023-09-11T01:58:02.955Z,4.47
2023-09-11T02:03:05.283Z,4.65
2023-09-11T02:08:07.373Z,5.00
2023-09-11T02:13:09.798Z,4.57
2023-09-11T02:18:12.050Z,4.80
2023-09-11T02:23:14.152Z,4.90
2023-09-11T02:28:16.330Z,5.00
2023-09-11T02:33:18.444Z,4.80
2023-09-11T02:38:20.794Z,4.80
2023-09-11T02:43:23.073Z,4.72
2023-09-11T02:48:25.566Z,4.75
2023-09-11T02:53:27.806Z,4.80
2023-09-11T02:58:29.907Z,4.82
2023-09-11T03:03:32.725Z,5.72
2023-09-11T03:08:34.968Z,5.30
2023-09-11T03:13:38.119Z,5.22
2023-09-11T03:18:41.418Z,4.80
2023-09-11T03:23:44.214Z,5.68
2023-09-11T03:28:51.454Z,5.20
2023-09-11T03:33:58.107Z,5.25
2023-09-11T03:39:00.859Z,5.72
2023-09-11T03:44:03.073Z,5.38
2023-09-11T03:49:05.435Z,5.60
2023-09-11T03:54:10.365Z,5.95
2023-09-11T03:59:15.025Z,5.90
2023-09-11T04:04:17.854Z,5.97
2023-09-11T04:09:20.129Z,5.75
2023-09-11T04:14:22.261Z,5.80
2023-09-11T04:19:24.579Z,5.60
2023-09-11T04:24:26.914Z,6.03
2023-09-11T04:29:32.598Z,5.47
2023-09-11T04:34:35.442Z,5.45
2023-09-11T04:39:38.272Z,5.75
2023-09-11T04:44:40.767Z,6.03
2023-09-11T04:49:43.004Z,6.70
2023-09-11T04:54:46.011Z,5.65
2023-09-11T04:59:48.240Z,5.93
2023-09-11T05:04:50.494Z,6.00
2023-09-11T05:09:52.992Z,5.30
2023-09-11T05:14:55.330Z,6.95
2023-09-11T05:19:57.611Z,6.15
2023-09-11T05:25:01.284Z,6.80
2023-09-11T05:30:03.572Z,5.88
2023-09-11T05:35:07.777Z,6.45
2023-09-11T05:45:11.768Z,6.65
2023-09-11T05:50:15.911Z,7.32
2023-09-11T06:00:20.789Z,7.85
2023-09-11T06:05:23.612Z,7.75
2023-09-11T06:10:25.720Z,8.50
2023-09-11T06:15:28.970Z,7.57
2023-09-11T06:20:31.242Z,8.48
2023-09-11T06:25:33.660Z,8.35
2023-09-11T06:30:35.776Z,7.53
2023-09-11T06:35:37.867Z,8.00
2023-09-11T06:40:39.915Z,7.20
2023-09-11T06:45:43.182Z,7.45
2023-09-11T06:50:45.231Z,8.27
2023-09-11T06:55:48.211Z,8.23
2023-09-11T07:00:50.611Z,7.85
2023-09-11T07:05:52.902Z,6.82
2023-09-11T07:10:56.836Z,8.18
2023-09-11T07:16:00.190Z,9.05
2023-09-11T07:21:02.369Z,7.73
2023-09-11T07:26:04.508Z,8.05
2023-09-11T07:31:08.081Z,8.05
2023-09-11T07:36:10.342Z,8.35
2023-09-11T07:41:17.598Z,7.60
2023-09-11T07:46:25.878Z,7.60
2023-09-11T07:51:28.498Z,6.97
2023-09-11T07:56:30.975Z,8.45
2023-09-11T08:01:33.057Z,7.40
2023-09-11T08:06:35.132Z,8.02
2023-09-11T08:11:41.129Z,8.15
2023-09-11T08:16:44.497Z,7.55
2023-09-11T08:21:47.334Z,7.87
2023-09-11T08:26:49.409Z,7.13
2023-09-11T08:31:51.466Z,7.70
2023-09-11T08:36:53.995Z,7.25
2023-09-11T08:42:00.311Z,7.60
2023-09-11T08:47:04.780Z,7.15
2023-09-11T08:52:07.306Z,7.22
2023-09-11T08:57:12.301Z,7.15
2023-09-11T09:02:14.649Z,7.28
2023-09-11T09:07:17.499Z,7.25
2023-09-11T09:12:19.703Z,7.00
2023-09-11T09:17:21.755Z,6.07
2023-09-11T09:22:23.792Z,6.20
2023-09-11T09:27:29.548Z,6.25
2023-09-11T09:32:34.110Z,6.53
2023-09-11T09:37:36.904Z,6.97
2023-09-11T09:42:43.274Z,6.88
2023-09-11T09:47:45.515Z,6.50
2023-09-11T09:52:47.664Z,6.10
2023-09-11T09:57:51.188Z,7.18
2023-09-11T10:02:56.695Z,7.45
2023-09-11T10:08:01.466Z,6.93
2023-09-11T10:13:09.077Z,6.03
2023-09-11T10:18:13.085Z,6.80
2023-09-11T10:23:15.498Z,6.15
2023-09-11T10:28:33.116Z,6.15
2023-09-11T10:33:36.308Z,6.10
2023-09-11T10:38:38.946Z,6.43
2023-09-11T10:43:41.581Z,5.80
2023-09-11T10:48:44.022Z,5.90
2023-09-11T10:53:49.402Z,5.53
2023-09-11T10:58:53.872Z,5.45
2023-09-11T11:03:55.991Z,5.38
2023-09-11T11:08:58.943Z,5.65
2023-09-11T11:14:16.631Z,4.78
2023-09-11T11:19:29.327Z,5.22
2023-09-11T11:24:36.295Z,5.38
2023-09-11T11:29:39.099Z,5.40
2023-09-11T11:34:42.812Z,4.90
2023-09-11T11:39:45.012Z,4.68
2023-09-11T11:44:47.714Z,4.38
2023-09-11T11:49:51.018Z,4.63
2023-09-11T11:54:53.191Z,4.90
2023-09-11T11:59:55.357Z,4.57
2023-09-11T12:04:57.911Z,4.60
2023-09-11T12:10:00.233Z,4.45
2023-09-11T12:15:02.614Z,4.88
2023-09-11T12:20:17.217Z,4.35
2023-09-11T12:25:19.849Z,4.28
2023-09-11T12:30:22.294Z,4.03
2023-09-11T12:35:34.076Z,4.35
2023-09-11T12:40:36.135Z,4.28
2023-09-11T12:45:38.637Z,4.05
2023-09-11T12:50:41.530Z,4.43
2023-09-11T12:55:44.035Z,4.05
2023-09-11T13:00:49.502Z,4.55
2023-09-11T13:05:51.792Z,4.30
2023-09-11T13:10:53.879Z,4.40
2023-09-11T13:15:56.073Z,4.07
2023-09-11T13:20:58.191Z,4.75
2023-09-11T13:26:00.345Z,4.80
2023-09-11T13:31:02.414Z,4.40
2023-09-11T13:36:04.612Z,4.47
2023-09-11T13:41:07.110Z,4.30
2023-09-11T13:46:09.858Z,4.22
2023-09-11T13:51:12.030Z,5.53
2023-09-11T13:56:14.376Z,4.47
2023-09-11T14:01:16.426Z,4.18
2023-09-11T14:06:18.569Z,5.03
2023-09-11T14:11:20.644Z,4.95
2023-09-11T14:16:22.785Z,4.70
2023-09-11T14:21:25.605Z,4.43
2023-09-11T14:26:27.928Z,4.80
2023-09-11T14:31:30.115Z,4.80
2023-09-11T14:36:32.275Z,4.85
2023-09-11T14:41:34.668Z,4.40
2023-09-11T14:46:36.753Z,5.18
2023-09-11T14:51:38.824Z,4.43
2023-09-11T14:56:41.810Z,4.25
2023-09-11T15:01:43.947Z,4.27
2023-09-11T15:06:45.982Z,4.53
2023-09-11T15:11:48.137Z,4.05
2023-09-11T15:16:50.240Z,4.53
2023-09-11T15:21:52.730Z,4.45
2023-09-11T15:26:55.106Z,4.18
2023-09-11T15:37:19.207Z,4.22
2023-09-11T15:42:21.350Z,4.50
2023-09-11T15:47:23.452Z,4.20
2023-09-11T15:52:25.494Z,4.45
2023-09-11T15:57:27.623Z,4.05
2023-09-11T16:02:29.822Z,3.92
2023-09-11T16:07:31.910Z,4.03
2023-09-11T16:12:34.044Z,3.67
2023-09-11T16:17:36.315Z,3.85
2023-09-11T16:22:39.686Z,4.10
2023-09-11T16:27:41.920Z,4.38
2023-09-11T16:32:45.191Z,3.92
2023-09-11T16:37:49.122Z,3.95
2023-09-11T16:42:53.003Z,3.80
2023-09-11T16:52:57.332Z,3.60
2023-09-11T16:57:59.486Z,3.40
2023-09-11T17:03:01.964Z,3.95
2023-09-11T17:08:04.792Z,4.15
2023-09-11T17:13:07.280Z,3.58
2023-09-11T17:18:09.481Z,4.03
2023-09-11T17:23:12.819Z,3.67
2023-09-11T17:28:14.966Z,3.85
2023-09-11T17:33:17.272Z,3.80
2023-09-11T17:38:19.688Z,3.88
2023-09-11T17:43:21.977Z,3.65
2023-09-11T17:48:24.137Z,4.30
2023-09-11T17:53:26.300Z,4.45
2023-09-11T17:58:28.660Z,5.13
2023-09-11T18:03:31.631Z,4.53
2023-09-11T18:08:33.832Z,4.67
2023-09-11T18:13:35.993Z,4.53
2023-09-11T18:18:38.119Z,4.90
2023-09-11T18:23:40.243Z,4.75
2023-09-11T18:28:42.711Z,4.85
2023-09-11T18:33:45.190Z,4.45
2023-09-11T18:38:47.349Z,4.72
2023-09-11T18:43:49.442Z,5.20
2023-09-11T18:48:51.836Z,5.18
2023-09-11T18:53:54.039Z,5.07
2023-09-11T18:58:56.063Z,5.03
2023-09-11T19:03:58.320Z,4.82
2023-09-11T19:09:01.946Z,4.70
2023-09-11T19:14:04.306Z,4.30
2023-09-11T19:19:07.673Z,4.60
2023-09-11T19:24:10.034Z,4.60
2023-09-11T19:29:12.206Z,4.97
2023-09-11T19:34:14.280Z,4.65
2023-09-11T19:39:16.791Z,4.95
2023-09-11T19:44:20.048Z,5.40
2023-09-11T19:49:22.152Z,5.17
2023-09-11T19:54:24.210Z,4.57
2023-09-11T19:59:29.116Z,4.70
2023-09-11T20:04:31.269Z,6.38
2023-09-11T20:09:34.570Z,6.82
2023-09-11T20:14:37.519Z,7.40
2023-09-11T20:19:39.620Z,7.25
2023-09-11T20:24:42.349Z,7.28
2023-09-11T20:29:44.804Z,7.72
2023-09-11T20:34:47.861Z,9.25
2023-09-11T20:39:49.946Z,7.03
2023-09-11T20:44:52.055Z,7.00
2023-09-11T20:49:54.223Z,6.05
2023-09-11T20:54:56.421Z,6.97
2023-09-11T20:59:58.534Z,6.60
2023-09-11T21:05:00.616Z,6.03
2023-09-11T21:10:02.665Z,5.70
2023-09-11T21:15:05.181Z,5.32
2023-09-11T21:20:08.269Z,5.00
2023-09-11T21:25:12.546Z,5.32
2023-09-11T21:30:14.697Z,5.07
2023-09-11T21:35:17.141Z,5.47
2023-09-11T21:40:19.476Z,5.43
2023-09-11T21:45:21.573Z,5.35
2023-09-11T21:50:23.631Z,5.18
2023-09-11T21:55:25.762Z,5.82
2023-09-11T22:00:27.961Z,5.20
2023-09-11T22:05:32.258Z,5.45
2023-09-11T22:10:34.538Z,5.40
2023-09-11T22:15:37.556Z,5.20
2023-09-11T22:20:39.667Z,5.43
2023-09-11T22:25:41.762Z,5.80
2023-09-11T22:30:47.826Z,5.18
2023-09-11T22:35:54.444Z,4.65
2023-09-11T22:40:56.696Z,5.25
2023-09-11T22:45:59.216Z,5.63
2023-09-11T22:51:05.010Z,5.63
2023-09-11T22:56:07.261Z,4.97
2023-09-11T23:01:27.504Z,5.53
2023-09-11T23:06:30.542Z,5.35
2023-09-11T23:11:41.140Z,5.53
2023-09-11T23:16:43.310Z,5.35
2023-09-11T23:21:45.318Z,5.20
2023-09-11T23:26:51.628Z,4.93
2023-09-11T23:31:53.906Z,5.65
2023-09-11T23:36:56.549Z,5.53
2023-09-11T23:41:58.655Z,5.65
2023-09-11T23:47:01.886Z,5.00
2023-09-11T23:52:19.484Z,5.90
2023-09-11T23:57:26.416Z,5.30
